Time;durP1;ratioP1;P1;durP2;ratioP2;P2;SDS_P1;SDS_P2;PMS_P1;PMS_P2;Temp;Humidity;BMP_temperature;BMP_pressure;BME280_temperature;BME280_humidity;BME280_pressure;Samples;Min_cycle;Max_cycle;Signal;HPM_P1;HPM_P2
2021/08/11 00:00:45;;;;;;;1.05;1.00;;;;;;;;;;5088698;28;20485;-55
2021/08/11 00:03:12;;;;;;;1.10;0.90;;;;;;;;;;5087121;28;20028;-54
2021/08/11 00:05:41;;;;;;;1.30;1.10;;;;;;;;;;5088324;28;20104;-55
2021/08/11 00:08:07;;;;;;;1.20;1.00;;;;;;;;;;5085958;28;20103;-55
2021/08/11 00:10:33;;;;;;;1.13;1.00;;;;;;;;;;5088143;28;20035;-55
2021/08/11 00:12:59;;;;;;;1.20;1.10;;;;;;;;;;5087764;28;20055;-55
2021/08/11 00:15:25;;;;;;;1.52;1.27;;;;;;;;;;5087951;28;20107;-55
2021/08/11 00:17:51;;;;;;;1.38;1.27;;;;;;;;;;5086071;28;20047;-55
2021/08/11 00:20:17;;;;;;;1.55;1.15;;;;;;;;;;5088409;28;20503;-55
2021/08/11 00:22:43;;;;;;;1.83;1.13;;;;;;;;;;5087734;28;20024;-55
2021/08/11 00:25:09;;;;;;;1.38;1.20;;;;;;;;;;5087766;28;20035;-55
2021/08/11 00:27:35;;;;;;;1.70;1.20;;;;;;;;;;5087640;28;20499;-55
2021/08/11 00:30:03;;;;;;;1.20;1.10;;;;;;;;;;5087485;28;20028;-56
2021/08/11 00:32:29;;;;;;;1.10;1.00;;;;;;;;;;5087821;28;20048;-56
2021/08/11 00:34:55;;;;;;;1.10;1.00;;;;;;;;;;5087405;28;20106;-55
2021/08/11 00:37:21;;;;;;;1.40;1.25;;;;;;;;;;5087260;28;20031;-56
2021/08/11 00:39:47;;;;;;;1.20;1.10;;;;;;;;;;5087894;28;20797;-55
2021/08/11 00:42:13;;;;;;;1.15;1.00;;;;;;;;;;5087951;28;20701;-56
2021/08/11 00:44:39;;;;;;;2.00;1.20;;;;;;;;;;5087441;28;20054;-55
2021/08/11 00:47:05;;;;;;;1.10;1.02;;;;;;;;;;5087531;28;20426;-56
2021/08/11 00:49:32;;;;;;;1.17;1.00;;;;;;;;;;5087174;28;20024;-54
2021/08/11 00:51:58;;;;;;;1.13;1.02;;;;;;;;;;5086042;28;20028;-56
2021/08/11 00:54:25;;;;;;;2.05;1.13;;;;;;;;;;5086141;28;20612;-55
2021/08/11 00:56:52;;;;;;;1.30;1.05;;;;;;;;;;5086975;28;20514;-55
2021/08/11 00:59:19;;;;;;;1.45;1.27;;;;;;;;;;5087151;28;20095;-55
2021/08/11 01:01:48;;;;;;;1.25;1.10;;;;;;;;;;5086696;28;20039;-55
2021/08/11 01:04:16;;;;;;;1.00;1.00;;;;;;;;;;5087494;28;20055;-55
2021/08/11 01:06:43;;;;;;;1.35;1.25;;;;;;;;;;5085790;28;20016;-55
2021/08/11 01:09:12;;;;;;;1.20;1.10;;;;;;;;;;5086294;28;20043;-56
2021/08/11 01:11:38;;;;;;;1.85;1.38;;;;;;;;;;5085845;28;20514;-55
2021/08/11 01:14:04;;;;;;;1.30;1.20;;;;;;;;;;5086756;28;20032;-55
2021/08/11 01:16:31;;;;;;;1.83;1.10;;;;;;;;;;5086498;28;20044;-55
2021/08/11 01:18:57;;;;;;;1.50;1.30;;;;;;;;;;5086476;28;20043;-55
2021/08/11 01:21:29;;;;;;;1.23;1.02;;;;;;;;;;5086842;28;20103;-56
2021/08/11 01:24:07;;;;;;;0.90;0.90;;;;;;;;;;5086618;28;20038;-55
2021/08/11 01:26:33;;;;;;;1.85;1.33;;;;;;;;;;5086344;28;20023;-55
2021/08/11 01:29:03;;;;;;;1.90;1.50;;;;;;;;;;5085571;28;20414;-55
2021/08/11 01:31:43;;;;;;;1.33;1.23;;;;;;;;;;5086675;28;20040;-56
2021/08/11 01:34:17;;;;;;;2.00;1.58;;;;;;;;;;5086694;28;20035;-55
2021/08/11 01:36:53;;;;;;;2.08;1.50;;;;;;;;;;5085822;28;20564;-55
2021/08/11 01:39:41;;;;;;;1.80;1.27;;;;;;;;;;5085678;28;20039;-56
2021/08/11 01:42:10;;;;;;;1.77;1.67;;;;;;;;;;5086420;28;20032;-55
2021/08/11 01:44:38;;;;;;;1.52;1.40;;;;;;;;;;5086507;28;20610;-55
2021/08/11 01:47:07;;;;;;;1.48;1.38;;;;;;;;;;5086011;28;20035;-55
2021/08/11 01:49:34;;;;;;;1.60;1.45;;;;;;;;;;5068125;28;20052;-55
2021/08/11 01:52:01;;;;;;;2.55;1.60;;;;;;;;;;5086359;28;20129;-56
2021/08/11 01:54:28;;;;;;;1.45;1.30;;;;;;;;;;5086129;28;20501;-55
2021/08/11 01:56:56;;;;;;;1.85;1.30;;;;;;;;;;5067798;28;20028;-56
2021/08/11 01:59:22;;;;;;;1.88;1.45;;;;;;;;;;5086474;28;20036;-55
2021/08/11 02:01:49;;;;;;;1.63;1.25;;;;;;;;;;5085431;28;20028;-55
2021/08/11 02:04:15;;;;;;;1.95;1.20;;;;;;;;;;5086910;28;20403;-55
2021/08/11 02:06:44;;;;;;;1.23;1.13;;;;;;;;;;5086180;28;20028;-54
2021/08/11 02:09:11;;;;;;;1.30;1.20;;;;;;;;;;5084305;28;20028;-55
2021/08/11 02:11:40;;;;;;;1.23;1.13;;;;;;;;;;5086462;28;20022;-55
2021/08/11 02:14:07;;;;;;;1.20;1.10;;;;;;;;;;5086315;28;20487;-55
2021/08/11 02:16:33;;;;;;;1.67;1.58;;;;;;;;;;5085729;28;20030;-55
2021/08/11 02:18:59;;;;;;;2.20;1.60;;;;;;;;;;5089801;28;20079;-55
2021/08/11 02:21:25;;;;;;;1.30;1.20;;;;;;;;;;5090322;28;20020;-55
2021/08/11 02:23:51;;;;;;;8.48;1.50;;;;;;;;;;5089690;28;20024;-54
2021/08/11 02:26:17;;;;;;;1.40;1.30;;;;;;;;;;5090963;28;20020;-55
2021/08/11 02:28:57;;;;;;;1.58;1.40;;;;;;;;;;5090285;28;20525;-55
2021/08/11 02:31:39;;;;;;;1.45;1.35;;;;;;;;;;5090001;28;20028;-56
2021/08/11 02:34:10;;;;;;;1.70;1.60;;;;;;;;;;5069687;28;20040;-55
2021/08/11 02:36:45;;;;;;;1.50;1.40;;;;;;;;;;5069580;28;20047;-55
2021/08/11 02:39:13;;;;;;;1.48;1.23;;;;;;;;;;5069260;28;20442;-56
2021/08/11 02:41:44;;;;;;;1.38;1.25;;;;;;;;;;5069248;28;20111;-56
2021/08/11 02:44:10;;;;;;;1.83;1.58;;;;;;;;;;5070908;28;20106;-55
2021/08/11 02:46:42;;;;;;;1.85;1.60;;;;;;;;;;5089191;28;20038;-55
2021/08/11 02:49:09;;;;;;;1.50;1.38;;;;;;;;;;5089429;28;20035;-55
2021/08/11 02:51:36;;;;;;;1.52;1.30;;;;;;;;;;5089690;28;20020;-55
2021/08/11 02:54:05;;;;;;;1.70;1.42;;;;;;;;;;5087561;28;20173;-54
2021/08/11 02:56:32;;;;;;;1.52;1.20;;;;;;;;;;5089720;28;20032;-55
2021/08/11 02:58:59;;;;;;;1.40;1.30;;;;;;;;;;5089323;28;20024;-55
2021/08/11 03:01:28;;;;;;;1.48;1.33;;;;;;;;;;5089294;28;20158;-55
2021/08/11 03:03:55;;;;;;;1.40;1.30;;;;;;;;;;5089079;28;20495;-54
2021/08/11 03:06:22;;;;;;;1.52;1.40;;;;;;;;;;5089149;28;20034;-55
2021/08/11 03:08:48;;;;;;;1.30;1.20;;;;;;;;;;5089533;28;20123;-55
2021/08/11 03:11:14;;;;;;;1.25;1.15;;;;;;;;;;5089050;28;20023;-55
2021/08/11 03:13:42;;;;;;;1.58;1.48;;;;;;;;;;5089281;28;20034;-55
2021/08/11 03:16:12;;;;;;;1.50;1.40;;;;;;;;;;5088767;28;20457;-55
2021/08/11 03:18:38;;;;;;;1.50;1.40;;;;;;;;;;5088899;28;20043;-55
2021/08/11 03:21:04;;;;;;;1.65;1.30;;;;;;;;;;5088793;28;20502;-55
2021/08/11 03:23:31;;;;;;;1.73;1.20;;;;;;;;;;5089212;28;20016;-55
2021/08/11 03:25:57;;;;;;;1.38;1.17;;;;;;;;;;5088641;28;20047;-55
2021/08/11 03:28:23;;;;;;;1.80;1.40;;;;;;;;;;5087269;28;20051;-55
2021/08/11 03:30:49;;;;;;;1.50;1.30;;;;;;;;;;5088667;28;20051;-55
2021/08/11 03:33:15;;;;;;;1.52;1.42;;;;;;;;;;5089531;28;20032;-55
2021/08/11 03:35:42;;;;;;;1.40;1.30;;;;;;;;;;5088350;28;20507;-53
2021/08/11 03:38:08;;;;;;;1.42;1.23;;;;;;;;;;5088784;28;20028;-55
2021/08/11 03:40:34;;;;;;;1.30;1.20;;;;;;;;;;5088660;28;20461;-55
2021/08/11 03:43:00;;;;;;;1.55;1.10;;;;;;;;;;5088664;28;20288;-55
2021/08/11 03:45:26;;;;;;;2.65;1.45;;;;;;;;;;5087805;28;20502;-55
2021/08/11 03:47:53;;;;;;;1.50;1.40;;;;;;;;;;5088091;28;20051;-54
2021/08/11 03:50:21;;;;;;;1.45;1.30;;;;;;;;;;5088442;28;20024;-56
2021/08/11 03:52:47;;;;;;;1.50;1.40;;;;;;;;;;5088104;28;20039;-55
2021/08/11 03:55:14;;;;;;;1.45;1.35;;;;;;;;;;5088854;28;20020;-53
2021/08/11 03:57:41;;;;;;;1.83;1.50;;;;;;;;;;5088145;28;20028;-55
2021/08/11 04:00:07;;;;;;;1.85;1.50;;;;;;;;;;5088455;28;20028;-55
2021/08/11 04:02:33;;;;;;;2.35;1.45;;;;;;;;;;5088067;28;20032;-55
2021/08/11 04:04:59;;;;;;;2.30;1.50;;;;;;;;;;5086727;28;20481;-55
2021/08/11 04:07:25;;;;;;;2.53;1.65;;;;;;;;;;5088145;28;20433;-55
2021/08/11 04:09:51;;;;;;;1.30;1.20;;;;;;;;;;5088088;28;20034;-55
2021/08/11 04:12:17;;;;;;;1.23;1.13;;;;;;;;;;5086967;28;20792;-54
2021/08/11 04:14:43;;;;;;;1.90;1.70;;;;;;;;;;5086745;28;20769;-55
2021/08/11 04:17:11;;;;;;;1.90;1.50;;;;;;;;;;5087089;28;20229;-55
2021/08/11 04:19:37;;;;;;;1.35;1.25;;;;;;;;;;5086893;28;20127;-52
2021/08/11 04:22:04;;;;;;;1.50;1.40;;;;;;;;;;5086736;28;20778;-54
2021/08/11 04:24:30;;;;;;;2.28;1.50;;;;;;;;;;5086758;28;20063;-54
2021/08/11 04:26:56;;;;;;;1.75;1.65;;;;;;;;;;5067789;28;20087;-55
2021/08/11 04:29:22;;;;;;;2.20;1.60;;;;;;;;;;5086826;28;20383;-55
2021/08/11 04:31:48;;;;;;;1.90;1.70;;;;;;;;;;5087236;28;20028;-55
2021/08/11 04:34:14;;;;;;;1.70;1.60;;;;;;;;;;5087265;28;20039;-55
2021/08/11 04:36:40;;;;;;;2.08;1.60;;;;;;;;;;5087367;28;20691;-55
2021/08/11 04:39:06;;;;;;;2.17;1.65;;;;;;;;;;5087489;28;20043;-54
2021/08/11 04:41:32;;;;;;;1.63;1.52;;;;;;;;;;5086255;28;20543;-55
2021/08/11 04:43:58;;;;;;;1.88;1.60;;;;;;;;;;5086259;28;20394;-54
2021/08/11 04:46:24;;;;;;;1.90;1.50;;;;;;;;;;5086998;28;20429;-55
2021/08/11 04:48:50;;;;;;;1.63;1.52;;;;;;;;;;5086762;28;20028;-55
2021/08/11 04:51:16;;;;;;;2.38;1.67;;;;;;;;;;5087338;28;20028;-55
2021/08/11 04:53:42;;;;;;;1.90;1.52;;;;;;;;;;5086914;28;20069;-54
2021/08/11 04:56:09;;;;;;;1.58;1.48;;;;;;;;;;5087158;28;20460;-54
2021/08/11 04:58:35;;;;;;;2.05;1.75;;;;;;;;;;5087127;28;20506;-54
2021/08/11 05:01:01;;;;;;;1.98;1.75;;;;;;;;;;5086571;28;20510;-52
2021/08/11 05:03:27;;;;;;;2.35;2.00;;;;;;;;;;5087017;28;20047;-54
2021/08/11 05:05:53;;;;;;;1.85;1.67;;;;;;;;;;5086742;28;20100;-54
2021/08/11 05:08:19;;;;;;;1.77;1.60;;;;;;;;;;5087544;28;20020;-54
2021/08/11 05:10:45;;;;;;;1.60;1.50;;;;;;;;;;5087077;28;20047;-54
2021/08/11 05:13:13;;;;;;;1.67;1.58;;;;;;;;;;5087184;28;20028;-55
2021/08/11 05:15:39;;;;;;;1.92;1.63;;;;;;;;;;5068406;28;20398;-54
2021/08/11 05:18:05;;;;;;;1.92;1.60;;;;;;;;;;5086204;28;20514;-55
2021/08/11 05:20:31;;;;;;;1.50;1.40;;;;;;;;;;5086881;28;20032;-55
2021/08/11 05:22:57;;;;;;;1.50;1.40;;;;;;;;;;5086705;28;20020;-54
2021/08/11 05:25:23;;;;;;;1.52;1.42;;;;;;;;;;5086812;28;20475;-55
2021/08/11 05:27:49;;;;;;;1.75;1.60;;;;;;;;;;5086126;28;20503;-55
2021/08/11 05:30:15;;;;;;;1.55;1.40;;;;;;;;;;5068970;28;20394;-54
2021/08/11 05:32:41;;;;;;;1.60;1.50;;;;;;;;;;5086432;28;20024;-55
2021/08/11 05:35:07;;;;;;;2.08;1.25;;;;;;;;;;5086729;28;20028;-53
2021/08/11 05:37:33;;;;;;;1.73;1.35;;;;;;;;;;5086235;28;20016;-54
2021/08/11 05:40:00;;;;;;;1.55;1.45;;;;;;;;;;5086438;28;20108;-54
2021/08/11 05:42:26;;;;;;;1.50;1.40;;;;;;;;;;5086250;28;20059;-55
2021/08/11 05:44:52;;;;;;;2.95;1.42;;;;;;;;;;5074900;28;20451;-55
2021/08/11 05:47:18;;;;;;;1.58;1.48;;;;;;;;;;5066763;28;20020;-53
2021/08/11 05:49:44;;;;;;;2.42;1.70;;;;;;;;;;5082778;28;20107;-54
2021/08/11 05:52:10;;;;;;;1.63;1.50;;;;;;;;;;5089278;28;20459;-54
2021/08/11 05:54:37;;;;;;;1.83;1.67;;;;;;;;;;5092566;28;20372;-54
2021/08/11 05:57:03;;;;;;;1.85;1.50;;;;;;;;;;5092805;28;20032;-52
2021/08/11 05:59:29;;;;;;;2.10;1.50;;;;;;;;;;5092931;28;20073;-53
2021/08/11 06:01:56;;;;;;;1.48;1.20;;;;;;;;;;5091577;28;20059;-53
2021/08/11 06:04:24;;;;;;;1.33;1.20;;;;;;;;;;5089459;28;20040;-53
2021/08/11 06:06:53;;;;;;;1.70;1.40;;;;;;;;;;5092573;28;20020;-53
2021/08/11 06:09:19;;;;;;;1.67;1.40;;;;;;;;;;5093487;28;20028;-54
2021/08/11 06:11:45;;;;;;;1.90;1.45;;;;;;;;;;5090011;28;20038;-53
2021/08/11 06:14:12;;;;;;;3.13;1.83;;;;;;;;;;5090136;28;20024;-55
2021/08/11 06:16:38;;;;;;;1.63;1.50;;;;;;;;;;5082738;28;20056;-53
2021/08/11 06:19:04;;;;;;;1.58;1.40;;;;;;;;;;5072453;28;20048;-55
2021/08/11 06:21:31;;;;;;;1.88;1.58;;;;;;;;;;5089280;28;20026;-53
2021/08/11 06:23:57;;;;;;;1.77;1.58;;;;;;;;;;5091927;28;20036;-54
2021/08/11 06:26:23;;;;;;;1.90;1.42;;;;;;;;;;5071588;28;20028;-54
2021/08/11 06:28:49;;;;;;;1.90;1.35;;;;;;;;;;5087605;28;20086;-52
2021/08/11 06:31:17;;;;;;;1.38;1.17;;;;;;;;;;5087160;28;20028;-54
2021/08/11 06:33:46;;;;;;;1.48;1.38;;;;;;;;;;5091296;28;20020;-54
2021/08/11 06:36:12;;;;;;;1.77;1.30;;;;;;;;;;5092375;28;20398;-55
2021/08/11 06:38:39;;;;;;;1.48;1.38;;;;;;;;;;5091799;28;20028;-55
2021/08/11 06:41:05;;;;;;;1.30;1.20;;;;;;;;;;5067612;28;20037;-55
2021/08/11 06:43:31;;;;;;;1.83;1.33;;;;;;;;;;5084745;28;20031;-52
2021/08/11 06:45:57;;;;;;;1.20;1.10;;;;;;;;;;5091313;28;20024;-52
2021/08/11 06:48:23;;;;;;;1.40;1.25;;;;;;;;;;5091136;28;20494;-56
2021/08/11 06:50:49;;;;;;;1.30;1.20;;;;;;;;;;5090242;28;20016;-54
2021/08/11 06:53:15;;;;;;;1.05;0.98;;;;;;;;;;5091614;28;20060;-55
2021/08/11 06:55:42;;;;;;;1.77;1.17;;;;;;;;;;5089479;28;20032;-55
2021/08/11 06:58:08;;;;;;;1.45;1.33;;;;;;;;;;5091066;28;20437;-53
2021/08/11 07:00:34;;;;;;;1.38;1.27;;;;;;;;;;5091749;28;20050;-54
2021/08/11 07:03:00;;;;;;;1.50;1.20;;;;;;;;;;5090395;28;20106;-51
2021/08/11 07:05:27;;;;;;;1.48;1.20;;;;;;;;;;5081206;28;20103;-53
2021/08/11 07:07:53;;;;;;;1.00;1.00;;;;;;;;;;5083463;28;20119;-54
2021/08/11 07:10:19;;;;;;;1.25;1.02;;;;;;;;;;5081427;28;20460;-53
2021/08/11 07:12:45;;;;;;;1.27;1.17;;;;;;;;;;5084624;28;20032;-53
2021/08/11 07:15:11;;;;;;;1.02;0.90;;;;;;;;;;5087936;28;20028;-53
2021/08/11 07:17:49;;;;;;;1.25;1.00;;;;;;;;;;5085554;28;20024;-52
2021/08/11 07:20:16;;;;;;;1.08;0.98;;;;;;;;;;5088188;28;20043;-53
2021/08/11 07:22:42;;;;;;;0.93;0.93;;;;;;;;;;5062025;28;20421;-54
2021/08/11 07:25:08;;;;;;;1.30;1.00;;;;;;;;;;5085155;28;20960;-54
2021/08/11 07:27:34;;;;;;;0.93;0.93;;;;;;;;;;5087975;28;20031;-56
2021/08/11 07:30:01;;;;;;;1.20;1.10;;;;;;;;;;5088479;28;20027;-55
2021/08/11 07:32:27;;;;;;;1.00;1.00;;;;;;;;;;5087361;28;20028;-55
2021/08/11 07:34:53;;;;;;;1.10;1.00;;;;;;;;;;5087676;28;20028;-55
2021/08/11 07:37:19;;;;;;;1.30;1.20;;;;;;;;;;5086105;28;20028;-56
2021/08/11 07:39:45;;;;;;;1.50;1.23;;;;;;;;;;5086656;28;20032;-55
2021/08/11 07:42:11;;;;;;;1.95;0.90;;;;;;;;;;5086888;28;20077;-55
2021/08/11 07:44:37;;;;;;;1.60;1.08;;;;;;;;;;5067749;28;20020;-55
2021/08/11 07:47:04;;;;;;;0.82;0.82;;;;;;;;;;5077152;28;20028;-55
2021/08/11 07:49:31;;;;;;;1.00;0.90;;;;;;;;;;5088241;28;20070;-55
2021/08/11 07:51:57;;;;;;;0.70;0.70;;;;;;;;;;5085996;28;20028;-55
2021/08/11 07:54:23;;;;;;;1.10;1.00;;;;;;;;;;5085675;28;20063;-57
2021/08/11 07:56:49;;;;;;;0.85;0.85;;;;;;;;;;5066233;28;20567;-57
2021/08/11 07:59:15;;;;;;;0.93;0.90;;;;;;;;;;5084797;28;20394;-57
2021/08/11 08:01:41;;;;;;;1.02;0.93;;;;;;;;;;5087160;28;20639;-56
2021/08/11 08:04:07;;;;;;;0.95;0.88;;;;;;;;;;5084286;28;20028;-56
2021/08/11 08:06:35;;;;;;;0.80;0.80;;;;;;;;;;5088024;28;20386;-56
2021/08/11 08:09:01;;;;;;;0.80;0.80;;;;;;;;;;5086310;28;20641;-56
2021/08/11 08:11:27;;;;;;;1.00;0.90;;;;;;;;;;5087692;28;20020;-56
2021/08/11 08:13:53;;;;;;;0.63;0.60;;;;;;;;;;5080550;28;20016;-56
2021/08/11 08:16:19;;;;;;;0.70;0.70;;;;;;;;;;5086964;28;20040;-55
2021/08/11 08:18:45;;;;;;;1.10;1.00;;;;;;;;;;5078177;28;20036;-55
2021/08/11 08:21:11;;;;;;;1.38;0.98;;;;;;;;;;5088051;28;20059;-56
2021/08/11 08:23:39;;;;;;;0.90;0.70;;;;;;;;;;5085787;28;20039;-55
2021/08/11 08:26:05;;;;;;;0.75;0.75;;;;;;;;;;5085701;28;20127;-54
2021/08/11 08:28:31;;;;;;;0.65;0.65;;;;;;;;;;5085535;28;20024;-55
2021/08/11 08:30:57;;;;;;;0.60;0.60;;;;;;;;;;5085171;28;20035;-56
2021/08/11 08:33:23;;;;;;;0.82;0.80;;;;;;;;;;5085929;28;20150;-55
2021/08/11 08:35:50;;;;;;;1.00;0.90;;;;;;;;;;5086175;28;20027;-56
2021/08/11 08:38:18;;;;;;;0.50;0.50;;;;;;;;;;5088080;28;20031;-56
2021/08/11 08:40:46;;;;;;;0.80;0.80;;;;;;;;;;5087622;28;20032;-56
2021/08/11 08:43:12;;;;;;;0.80;0.80;;;;;;;;;;5086243;28;20027;-56
2021/08/11 08:45:42;;;;;;;0.93;0.82;;;;;;;;;;5085646;28;20104;-55
2021/08/11 08:48:08;;;;;;;0.73;0.73;;;;;;;;;;5077743;28;20020;-55
2021/08/11 08:50:35;;;;;;;0.82;0.80;;;;;;;;;;5086776;28;20356;-53
2021/08/11 08:53:03;;;;;;;0.80;0.73;;;;;;;;;;5087058;28;20080;-54
2021/08/11 08:55:30;;;;;;;0.70;0.70;;;;;;;;;;5087178;28;20024;-55
2021/08/11 08:57:56;;;;;;;0.73;0.73;;;;;;;;;;5086696;28;20038;-52
2021/08/11 09:00:23;;;;;;;0.60;0.60;;;;;;;;;;5084424;28;20031;-56
2021/08/11 09:02:49;;;;;;;0.63;0.63;;;;;;;;;;5086077;28;20035;-56
2021/08/11 09:05:15;;;;;;;0.50;0.50;;;;;;;;;;5083496;28;20086;-54
2021/08/11 09:07:46;;;;;;;0.85;0.55;;;;;;;;;;5083221;28;20430;-54
2021/08/11 09:10:16;;;;;;;0.50;0.50;;;;;;;;;;5084838;28;20032;-55
2021/08/11 09:12:46;;;;;;;0.50;0.50;;;;;;;;;;5085041;28;20516;-55
2021/08/11 09:15:29;;;;;;;0.60;0.60;;;;;;;;;;5085450;28;20024;-55
2021/08/11 09:17:56;;;;;;;0.60;0.60;;;;;;;;;;5083459;28;20180;-55
2021/08/11 09:20:23;;;;;;;0.73;0.70;;;;;;;;;;5083437;28;20028;-54
2021/08/11 09:22:51;;;;;;;0.60;0.60;;;;;;;;;;5083846;28;20035;-55
2021/08/11 09:25:17;;;;;;;0.65;0.65;;;;;;;;;;5083141;28;20020;-56
2021/08/11 09:27:44;;;;;;;0.73;0.63;;;;;;;;;;5082774;28;20453;-55
2021/08/11 09:30:14;;;;;;;0.60;0.60;;;;;;;;;;5085293;28;20036;-56
2021/08/11 09:32:48;;;;;;;0.52;0.52;;;;;;;;;;5083863;28;20035;-55
2021/08/11 09:35:15;;;;;;;0.70;0.70;;;;;;;;;;5083966;28;20036;-56
2021/08/11 09:37:44;;;;;;;0.80;0.80;;;;;;;;;;5084002;28;20403;-57
2021/08/11 09:40:10;;;;;;;0.93;0.60;;;;;;;;;;5085020;28;20485;-56
2021/08/11 09:42:37;;;;;;;0.60;0.50;;;;;;;;;;5083674;28;20031;-55
2021/08/11 09:45:03;;;;;;;0.50;0.50;;;;;;;;;;5081983;28;20076;-55
2021/08/11 09:47:29;;;;;;;0.50;0.50;;;;;;;;;;5082136;28;20060;-54
2021/08/11 09:49:59;;;;;;;0.70;0.70;;;;;;;;;;5081583;28;20024;-55
2021/08/11 09:52:25;;;;;;;0.50;0.50;;;;;;;;;;5077172;28;20035;-54
2021/08/11 09:55:01;;;;;;;0.65;0.65;;;;;;;;;;5065956;28;20069;-55
2021/08/11 09:57:30;;;;;;;0.85;0.70;;;;;;;;;;5071734;28;20125;-55
2021/08/11 09:59:57;;;;;;;0.70;0.70;;;;;;;;;;5084110;28;20034;-55
2021/08/11 10:02:25;;;;;;;0.50;0.50;;;;;;;;;;5074758;28;20028;-56
2021/08/11 10:04:51;;;;;;;0.50;0.50;;;;;;;;;;5077715;28;20436;-55
2021/08/11 10:07:18;;;;;;;0.90;0.57;;;;;;;;;;5084959;28;20089;-56
2021/08/11 10:10:00;;;;;;;0.82;0.63;;;;;;;;;;5085160;28;20017;-56
2021/08/11 10:12:30;;;;;;;1.13;0.68;;;;;;;;;;5090885;28;20020;-55
2021/08/11 10:14:58;;;;;;;0.60;0.60;;;;;;;;;;5083324;28;20034;-54
2021/08/11 10:17:27;;;;;;;0.63;0.63;;;;;;;;;;5086261;28;20056;-56
2021/08/11 10:19:53;;;;;;;0.57;0.57;;;;;;;;;;5086055;28;20051;-52
2021/08/11 10:22:21;;;;;;;0.50;0.50;;;;;;;;;;5085832;28;20067;-55
2021/08/11 10:24:50;;;;;;;0.50;0.50;;;;;;;;;;5082841;28;20028;-55
2021/08/11 10:27:18;;;;;;;0.88;0.55;;;;;;;;;;5086887;28;20020;-55
2021/08/11 10:29:46;;;;;;;0.70;0.70;;;;;;;;;;5107787;28;20099;-55
2021/08/11 10:32:13;;;;;;;0.55;0.55;;;;;;;;;;5108088;28;20110;-55
2021/08/11 10:34:40;;;;;;;0.70;0.70;;;;;;;;;;5107062;28;20501;-55
2021/08/11 10:37:06;;;;;;;0.77;0.70;;;;;;;;;;5107149;28;20502;-55
2021/08/11 10:39:33;;;;;;;0.70;0.70;;;;;;;;;;5106523;28;20027;-56
2021/08/11 10:42:01;;;;;;;0.60;0.60;;;;;;;;;;5089652;28;20115;-55
2021/08/11 10:44:28;;;;;;;1.67;0.80;;;;;;;;;;5090059;28;20051;-54
2021/08/11 10:46:54;;;;;;;0.60;0.60;;;;;;;;;;5088787;28;20111;-53
2021/08/11 10:49:21;;;;;;;0.70;0.70;;;;;;;;;;5088685;28;20099;-55
2021/08/11 10:51:48;;;;;;;0.60;0.50;;;;;;;;;;5085022;28;20016;-55
2021/08/11 10:54:14;;;;;;;0.60;0.60;;;;;;;;;;5078723;28;20024;-53
2021/08/11 10:56:56;;;;;;;0.60;0.60;;;;;;;;;;5106887;28;20073;-54
2021/08/11 10:59:22;;;;;;;0.50;0.50;;;;;;;;;;5085629;28;20020;-54
2021/08/11 11:01:49;;;;;;;0.60;0.60;;;;;;;;;;5088337;28;20025;-53
2021/08/11 11:04:33;;;;;;;0.57;0.57;;;;;;;;;;5089903;28;20502;-54
2021/08/11 11:07:12;;;;;;;0.60;0.60;;;;;;;;;;5083135;28;20038;-55
2021/08/11 11:09:40;;;;;;;0.50;0.50;;;;;;;;;;5088503;28;20032;-55
2021/08/11 11:12:19;;;;;;;0.65;0.65;;;;;;;;;;5088273;28;20032;-53
2021/08/11 11:14:50;;;;;;;0.45;0.45;;;;;;;;;;5089347;28;20032;-54
2021/08/11 11:17:17;;;;;;;0.60;0.60;;;;;;;;;;5086460;28;20074;-55
2021/08/11 11:20:02;;;;;;;0.50;0.50;;;;;;;;;;5084840;28;20449;-55
2021/08/11 11:22:50;;;;;;;0.85;0.73;;;;;;;;;;5085603;28;20027;-56
2021/08/11 11:25:18;;;;;;;0.77;0.77;;;;;;;;;;5072058;28;20107;-55
2021/08/11 11:27:44;;;;;;;0.60;0.60;;;;;;;;;;5087105;28;20035;-56
2021/08/11 11:30:12;;;;;;;0.70;0.70;;;;;;;;;;5087932;28;20107;-56
2021/08/11 11:32:39;;;;;;;0.60;0.60;;;;;;;;;;5086425;28;20030;-56
2021/08/11 11:35:18;;;;;;;0.70;0.68;;;;;;;;;;5085095;28;20039;-56
2021/08/11 11:37:44;;;;;;;0.70;0.70;;;;;;;;;;5077057;28;20059;-55
2021/08/11 11:40:12;;;;;;;0.50;0.50;;;;;;;;;;5082725;28;20039;-56
2021/08/11 11:42:38;;;;;;;0.70;0.70;;;;;;;;;;5086088;28;20123;-55
2021/08/11 11:45:06;;;;;;;0.65;0.63;;;;;;;;;;5071646;28;20071;-56
2021/08/11 11:47:46;;;;;;;0.70;0.70;;;;;;;;;;5086685;28;20030;-56
2021/08/11 11:50:22;;;;;;;0.50;0.50;;;;;;;;;;5088115;28;20047;-56
2021/08/11 11:53:06;;;;;;;0.32;0.32;;;;;;;;;;5083900;28;20028;-55
2021/08/11 11:55:33;;;;;;;0.70;0.70;;;;;;;;;;5088364;28;20077;-55
2021/08/11 11:58:01;;;;;;;0.50;0.50;;;;;;;;;;5086493;28;20043;-56
2021/08/11 12:00:28;;;;;;;0.60;0.60;;;;;;;;;;5087343;28;21600;-56
2021/08/11 12:02:55;;;;;;;0.55;0.50;;;;;;;;;;5083879;28;20036;-55
2021/08/11 12:05:22;;;;;;;0.73;0.73;;;;;;;;;;5087745;28;20521;-55
2021/08/11 12:07:48;;;;;;;0.55;0.55;;;;;;;;;;5083249;28;20016;-55
2021/08/11 12:10:24;;;;;;;0.50;0.50;;;;;;;;;;5087605;28;20811;-56
2021/08/11 12:12:59;;;;;;;0.50;0.50;;;;;;;;;;5079335;28;20032;-55
2021/08/11 12:15:26;;;;;;;0.70;0.60;;;;;;;;;;5080020;28;20024;-56
2021/08/11 12:17:52;;;;;;;0.70;0.70;;;;;;;;;;5082336;28;20482;-55
2021/08/11 12:20:31;;;;;;;0.80;0.80;;;;;;;;;;5070269;28;20118;-56
2021/08/11 12:23:02;;;;;;;0.90;0.90;;;;;;;;;;5085540;28;20036;-56
2021/08/11 12:25:29;;;;;;;0.60;0.60;;;;;;;;;;5085432;28;20031;-56
2021/08/11 12:28:07;;;;;;;1.05;0.90;;;;;;;;;;5085136;28;20500;-56
2021/08/11 12:30:33;;;;;;;0.80;0.80;;;;;;;;;;5087712;28;20020;-56
2021/08/11 12:33:00;;;;;;;0.60;0.60;;;;;;;;;;5084374;28;20059;-56
2021/08/11 12:35:26;;;;;;;0.60;0.60;;;;;;;;;;5092814;28;20817;-56
2021/08/11 12:37:52;;;;;;;0.90;0.90;;;;;;;;;;5086399;28;20028;-55
2021/08/11 12:40:34;;;;;;;0.80;0.80;;;;;;;;;;5085964;28;20040;-55
2021/08/11 12:43:01;;;;;;;1.00;0.80;;;;;;;;;;5068810;28;20414;-56
2021/08/11 12:45:28;;;;;;;0.60;0.60;;;;;;;;;;5086016;28;20032;-56
2021/08/11 12:47:54;;;;;;;0.82;0.82;;;;;;;;;;5088010;28;20562;-56
2021/08/11 12:50:21;;;;;;;0.73;0.73;;;;;;;;;;5088146;28;20027;-56
2021/08/11 12:52:54;;;;;;;0.70;0.70;;;;;;;;;;5083224;28;20058;-56
2021/08/11 12:55:36;;;;;;;1.00;0.90;;;;;;;;;;5085312;28;20392;-54
2021/08/11 12:58:02;;;;;;;1.10;0.90;;;;;;;;;;5077252;28;20036;-55
2021/08/11 13:00:39;;;;;;;0.80;0.80;;;;;;;;;;5084586;28;20031;-57
2021/08/11 13:03:10;;;;;;;0.85;0.85;;;;;;;;;;5086610;28;20093;-57
2021/08/11 13:05:58;;;;;;;0.70;0.70;;;;;;;;;;5087735;28;20056;-56
2021/08/11 13:08:39;;;;;;;0.70;0.70;;;;;;;;;;5066962;28;20440;-56
2021/08/11 13:11:06;;;;;;;1.27;0.82;;;;;;;;;;5066565;28;20365;-57
2021/08/11 13:13:33;;;;;;;0.80;0.80;;;;;;;;;;5066515;28;20403;-57
2021/08/11 13:16:06;;;;;;;0.80;0.80;;;;;;;;;;5065827;28;20159;-56
2021/08/11 13:18:32;;;;;;;0.77;0.77;;;;;;;;;;5066044;28;20050;-57
2021/08/11 13:20:58;;;;;;;0.60;0.60;;;;;;;;;;5085085;28;20032;-57
2021/08/11 13:23:24;;;;;;;0.80;0.80;;;;;;;;;;5085314;28;20107;-57
2021/08/11 13:25:50;;;;;;;1.50;0.90;;;;;;;;;;5081654;28;20029;-57
2021/08/11 13:28:17;;;;;;;0.85;0.85;;;;;;;;;;5074355;28;20051;-57
2021/08/11 13:30:45;;;;;;;1.40;1.30;;;;;;;;;;5068385;28;20027;-57
2021/08/11 13:33:12;;;;;;;1.42;1.30;;;;;;;;;;5087317;28;20089;-57
2021/08/11 13:35:38;;;;;;;1.67;1.40;;;;;;;;;;5086357;28;20460;-57
2021/08/11 13:38:05;;;;;;;1.08;1.05;;;;;;;;;;5085617;28;20391;-57
2021/08/11 13:40:32;;;;;;;1.20;1.10;;;;;;;;;;5086451;28;20052;-57
2021/08/11 13:42:59;;;;;;;1.20;1.10;;;;;;;;;;5085564;28;20032;-57
2021/08/11 13:45:25;;;;;;;1.20;1.10;;;;;;;;;;5086156;28;20063;-57
2021/08/11 13:47:51;;;;;;;1.10;1.00;;;;;;;;;;5086372;28;20060;-57
2021/08/11 13:50:18;;;;;;;1.20;1.10;;;;;;;;;;5092884;28;20025;-57
2021/08/11 13:52:45;;;;;;;0.85;0.85;;;;;;;;;;5077180;28;20067;-57
2021/08/11 13:55:11;;;;;;;1.10;1.00;;;;;;;;;;5086218;28;20032;-56
2021/08/11 13:57:38;;;;;;;1.00;1.00;;;;;;;;;;5084619;28;20055;-57
2021/08/11 14:00:05;;;;;;;0.90;0.90;;;;;;;;;;5085353;28;20073;-56
2021/08/11 14:02:32;;;;;;;1.20;1.10;;;;;;;;;;5085146;28;20059;-57
2021/08/11 14:04:58;;;;;;;0.93;0.93;;;;;;;;;;5084386;28;20032;-57
2021/08/11 14:07:25;;;;;;;1.13;1.10;;;;;;;;;;5084656;28;20463;-57
2021/08/11 14:09:51;;;;;;;1.13;0.98;;;;;;;;;;5084711;28;20044;-57
2021/08/11 14:12:17;;;;;;;1.20;1.10;;;;;;;;;;5084806;28;20031;-57
2021/08/11 14:14:43;;;;;;;0.95;0.95;;;;;;;;;;5088475;28;20024;-57
2021/08/11 14:17:10;;;;;;;1.20;1.10;;;;;;;;;;5088673;28;20031;-57
2021/08/11 14:19:38;;;;;;;1.10;1.00;;;;;;;;;;5088605;28;20039;-57
2021/08/11 14:22:04;;;;;;;1.10;1.00;;;;;;;;;;5088717;28;20039;-57
2021/08/11 14:24:32;;;;;;;0.98;0.98;;;;;;;;;;5088747;28;20024;-57
2021/08/11 14:26:58;;;;;;;0.80;0.80;;;;;;;;;;5088715;28;20020;-57
2021/08/11 14:29:24;;;;;;;1.10;1.00;;;;;;;;;;5087524;28;20032;-57
2021/08/11 14:31:50;;;;;;;1.40;1.10;;;;;;;;;;5088629;28;20028;-57
2021/08/11 14:34:16;;;;;;;1.00;1.00;;;;;;;;;;5089188;28;20411;-57
2021/08/11 14:36:42;;;;;;;0.88;0.88;;;;;;;;;;5088972;28;20627;-57
2021/08/11 14:39:08;;;;;;;1.08;0.90;;;;;;;;;;5088411;28;20024;-57
2021/08/11 14:41:34;;;;;;;1.20;1.10;;;;;;;;;;5088790;28;20028;-57
2021/08/11 14:44:01;;;;;;;1.02;0.93;;;;;;;;;;5069782;28;20486;-57
2021/08/11 14:46:28;;;;;;;1.15;1.05;;;;;;;;;;5088442;28;20085;-57